| time (UTC) | temp C | wind direction | speed KPH | gust KPH | rain 1hr cm | rain 24hr cm | rain mn cm | humidity % | barometer mb |
| 20260507045446 | 11 | 186 | 6.4 | 9.7 | 0.00 | 0.00 | 0.00 | 88 | 1006.0 |
| 20260507044946 | 11 | 242 | 4.8 | 8.0 | 0.00 | 0.00 | 0.00 | 88 | 1006.0 |
| 20260507044446 | 12 | 228 | 4.8 | 8.0 | 0.00 | 0.00 | 0.00 | 88 | 1006.0 |
| 20260507043945 | 12 | 202 | 3.2 | 9.7 | 0.00 | 0.00 | 0.00 | 88 | 1006.0 |
| 20260507043445 | 12 | 135 | 3.2 | 6.4 | 0.00 | 0.00 | 0.00 | 88 | 1007.0 |
| 20260507042945 | 12 | 199 | 4.8 | 11.3 | 0.00 | 0.00 | 0.00 | 88 | 1007.0 |
| 20260507042447 | 12 | 197 | 6.4 | 11.3 | 0.00 | 0.00 | 0.00 | 87 | 1007.0 |
| 20260507041944 | 12 | 188 | 3.2 | 6.4 | 0.00 | 0.00 | 0.00 | 87 | 1007.0 |
| 20260507041445 | 12 | 189 | 3.2 | 8.0 | 0.00 | 0.00 | 0.00 | 87 | 1007.0 |
| 20260507040947 | 12 | 192 | 4.8 | 9.7 | 0.00 | 0.00 | 0.00 | 87 | 1007.0 |
| 20260507040447 | 12 | 173 | 4.8 | 9.7 | 0.00 | 0.00 | 0.00 | 87 | 1007.0 |
| 20260507035945 | 12 | 173 | 4.8 | 9.7 | 0.00 | 0.00 | 0.00 | 86 | 1006.0 |
| 20260507035446 | 12 | 218 | 4.8 | 8.0 | 0.00 | 0.00 | 0.00 | 86 | 1007.0 |
| 20260507034946 | 12 | 211 | 4.8 | 6.4 | 0.00 | 0.00 | 0.00 | 86 | 1007.0 |
| 20260507034445 | 12 | 148 | 1.6 | 6.4 | 0.00 | 0.00 | 0.00 | 85 | 1007.0 |
| 20260507033944 | 12 | 191 | 4.8 | 11.3 | 0.00 | 0.00 | 0.00 | 85 | 1007.0 |
| 20260507033444 | 12 | 250 | 3.2 | 11.3 | 0.00 | 0.00 | 0.00 | 85 | 1007.0 |
| 20260507032944 | 12 | 224 | 6.4 | 11.3 | 0.00 | 0.00 | 0.00 | 84 | 1007.0 |
| 20260507032446 | 12 | 131 | 4.8 | 14.5 | 0.00 | 0.00 | 0.00 | 84 | 1007.0 |
| 20260507031945 | 12 | 197 | 8.0 | 14.5 | 0.00 | 0.00 | 0.00 | 83 | 1008.0 |
| 20260507031447 | 13 | 166 | 3.2 | 8.0 | 0.00 | 0.00 | 0.00 | 82 | 1008.0 |
| 20260507030947 | 13 | 216 | 3.2 | 8.0 | 0.00 | 0.00 | 0.00 | 82 | 1008.0 |
| 20260507030446 | 13 | 211 | 1.6 | 6.4 | 0.00 | 0.00 | 0.00 | 82 | 1008.0 |
| 20260507025944 | 13 | 166 | 6.4 | 11.3 | 0.00 | 0.00 | 0.00 | 81 | 1008.0 |
| 20260507025449 | 13 | 181 | 6.4 | 9.7 | 0.00 | 0.00 | 0.00 | 81 | 1008.0 |
| 20260507024945 | 13 | 214 | 8.0 | 9.7 | 0.00 | 0.00 | 0.00 | 81 | 1008.0 |
| 20260507024447 | 13 | 188 | 4.8 | 9.7 | 0.00 | 0.00 | 0.00 | 80 | 1008.0 |
| 20260507023946 | 13 | 189 | 4.8 | 11.3 | 0.00 | 0.00 | 0.00 | 80 | 1008.0 |
| 20260507023446 | 13 | 225 | 6.4 | 11.3 | 0.00 | 0.00 | 0.00 | 80 | 1008.0 |
| 20260507022948 | 13 | 180 | 6.4 | 12.9 | 0.00 | 0.00 | 0.00 | 79 | 1008.0 |
| 20260507022449 | 13 | 180 | 6.4 | 12.9 | 0.00 | 0.00 | 0.00 | 79 | 1008.0 |
| 20260507021944 | 13 | 140 | 4.8 | 12.9 | 0.00 | 0.00 | 0.00 | 78 | 1008.0 |
| 20260507021445 | 13 | 119 | 6.4 | 12.9 | 0.00 | 0.00 | 0.00 | 78 | 1008.0 |
| 20260507020947 | 13 | 157 | 6.4 | 11.3 | 0.00 | 0.00 | 0.00 | 77 | 1008.0 |
| 20260507020446 | 13 | 206 | 8.0 | 11.3 | 0.00 | 0.00 | 0.00 | 77 | 1008.0 |
| 20260507015944 | 13 | 199 | 6.4 | 11.3 | 0.00 | 0.00 | 0.00 | 77 | 1008.0 |
| 20260507015445 | 13 | 220 | 8.0 | 14.5 | 0.00 | 0.00 | 0.00 | 76 | 1008.0 |
| 20260507014946 | 14 | 188 | 6.4 | 11.3 | 0.00 | 0.00 | 0.00 | 76 | 1008.0 |
| 20260507014447 | 14 | 169 | 6.4 | 11.3 | 0.00 | 0.00 | 0.00 | 76 | 1008.0 |
| 20260507013946 | 14 | 207 | 4.8 | 11.3 | 0.00 | 0.00 | 0.00 | 75 | 1008.0 |
| 20260507013447 | 14 | 120 | 4.8 | 12.9 | 0.00 | 0.00 | 0.00 | 76 | 1008.0 |
| 20260507012944 | 14 | 245 | 4.8 | 12.9 | 0.00 | 0.00 | 0.00 | 76 | 1008.0 |
| 20260507012444 | 14 | 266 | 4.8 | 9.7 | 0.00 | 0.00 | 0.00 | 76 | 1008.0 |
| 20260507011944 | 14 | 245 | 6.4 | 16.1 | 0.00 | 0.00 | 0.00 | 75 | 1008.0 |
| 20260507011446 | 14 | 140 | 9.7 | 16.1 | 0.00 | 0.00 | 0.00 | 75 | 1008.0 |
| 20260507010946 | 14 | 181 | 6.4 | 11.3 | 0.00 | 0.00 | 0.00 | 76 | 1008.0 |
| 20260507010446 | 14 | 192 | 8.0 | 11.3 | 0.00 | 0.00 | 0.00 | 76 | 1008.0 |
| 20260507005947 | 14 | 217 | 8.0 | 12.9 | 0.00 | 0.00 | 0.00 | 75 | 1008.0 |
| 20260507005445 | 14 | 195 | 9.7 | 14.5 | 0.00 | 0.00 | 0.00 | 75 | 1008.0 |
| 20260507004947 | 14 | 223 | 8.0 | 12.9 | 0.00 | 0.00 | 0.00 | 75 | 1008.0 |
| 20260507004445 | 14 | 173 | 6.4 | 12.9 | 0.00 | 0.00 | 0.00 | 75 | 1008.0 |
| 20260507003946 | 14 | 130 | 6.4 | 12.9 | 0.00 | 0.00 | 0.00 | 75 | 1008.0 |
| 20260507003446 | 14 | 134 | 6.4 | 12.9 | 0.00 | 0.00 | 0.00 | 76 | 1008.0 |
| 20260507002949 | 14 | 182 | 8.0 | 11.3 | 0.00 | 0.00 | 0.00 | 76 | 1008.0 |
| 20260507002449 | 14 | 200 | 6.4 | 9.7 | 0.00 | 0.00 | 0.00 | 76 | 1008.0 |
| 20260507001946 | 14 | 224 | 9.7 | 12.9 | 0.00 | 0.00 | 0.00 | 76 | 1008.0 |
| 20260507001446 | 14 | 150 | 9.7 | 14.5 | 0.00 | 0.00 | 0.00 | 76 | 1008.0 |
| 20260507000945 | 14 | 194 | 9.7 | 14.5 | 0.00 | 0.00 | 0.00 | 75 | 1008.0 |
| 20260507000446 | 14 | 240 | 12.9 | 17.7 | 0.00 | 0.00 | 0.00 | 76 | 1008.0 |
| 20260506235947 | 14 | 192 | 6.4 | 14.5 | 0.00 | 0.00 | 0.00 | 76 | 1008.0 |
| 20260506235444 | 14 | 192 | 8.0 | 14.5 | 0.00 | 0.00 | 0.00 | 76 | 1008.0 |
| 20260506234947 | 14 | 175 | 8.0 | 14.5 | 0.00 | 0.00 | 0.00 | 75 | 1008.0 |
| 20260506234447 | 14 | 177 | 9.7 | 14.5 | 0.00 | 0.00 | 0.00 | 75 | 1008.0 |
| 20260506233944 | 14 | 217 | 8.0 | 16.1 | 0.00 | 0.00 | 0.00 | 75 | 1007.0 |
| 20260506233445 | 14 | 210 | 9.7 | 14.5 | 0.00 | 0.00 | 0.00 | 75 | 1007.0 |
| 20260506232948 | 14 | 199 | 6.4 | 11.3 | 0.00 | 0.00 | 0.00 | 75 | 1007.0 |
| 20260506232445 | 14 | 198 | 8.0 | 16.1 | 0.00 | 0.00 | 0.00 | 75 | 1007.0 |
| 20260506231946 | 14 | 193 | 11.3 | 16.1 | 0.00 | 0.00 | 0.00 | 75 | 1006.0 |
| 20260506231447 | 14 | 160 | 8.0 | 12.9 | 0.00 | 0.00 | 0.00 | 75 | 1006.0 |
| 20260506230945 | 14 | 115 | 6.4 | 12.9 | 0.00 | 0.00 | 0.00 | 75 | 1005.0 |
| 20260506230445 | 14 | 173 | 4.8 | 11.3 | 0.00 | 0.00 | 0.00 | 75 | 1005.0 |
| 20260506225944 | 14 | 218 | 9.7 | 12.9 | 0.00 | 0.00 | 0.00 | 76 | 1004.0 |
| 20260506225447 | 14 | 154 | 6.4 | 17.7 | 0.00 | 0.00 | 0.00 | 74 | 1003.0 |
| 20260506224946 | 14 | 201 | 11.3 | 17.7 | 0.00 | 0.00 | 0.00 | 75 | 1003.0 |
| 20260506224445 | 15 | 122 | 11.3 | 16.1 | 0.00 | 0.00 | 0.00 | 73 | 1003.0 |
| 20260506223947 | 15 | 145 | 6.4 | 11.3 | 0.00 | 0.00 | 0.00 | 74 | 1005.0 |
| 20260506223445 | 15 | 219 | 4.8 | 14.5 | 0.00 | 0.00 | 0.00 | 75 | 1006.0 |
| 20260506222945 | 14 | 131 | 6.4 | 14.5 | 0.00 | 0.00 | 0.00 | 75 | 1007.0 |
| 20260506222444 | 14 | 219 | 6.4 | 12.9 | 0.00 | 0.00 | 0.00 | 74 | 1007.0 |
| 20260506221946 | 14 | 166 | 8.0 | 12.9 | 0.00 | 0.00 | 0.00 | 75 | 1007.0 |
| 20260506221444 | 14 | 206 | 6.4 | 11.3 | 0.00 | 0.00 | 0.00 | 75 | 1007.0 |
| 20260506220947 | 14 | 150 | 8.0 | 16.1 | 0.00 | 0.00 | 0.00 | 75 | 1007.0 |
| 20260506220445 | 14 | 167 | 9.7 | 14.5 | 0.00 | 0.00 | 0.00 | 75 | 1007.0 |
| 20260506215948 | 14 | 128 | 6.4 | 14.5 | 0.00 | 0.00 | 0.00 | 75 | 1007.0 |
| 20260506215445 | 14 | 188 | 6.4 | 12.9 | 0.00 | 0.00 | 0.00 | 75 | 1007.0 |
| 20260506214945 | 14 | 271 | 8.0 | 16.1 | 0.00 | 0.00 | 0.00 | 75 | 1007.0 |
| 20260506214448 | 13 | 173 | 9.7 | 16.1 | 0.00 | 0.00 | 0.00 | 76 | 1007.0 |
| 20260506213947 | 13 | 199 | 9.7 | 16.1 | 0.00 | 0.00 | 0.00 | 75 | 1007.0 |
| 20260506213446 | 13 | 205 | 8.0 | 16.1 | 0.00 | 0.00 | 0.00 | 76 | 1007.0 |
| 20260506212945 | 13 | 176 | 9.7 | 12.9 | 0.00 | 0.00 | 0.00 | 76 | 1007.0 |
| 20260506212446 | 13 | 170 | 8.0 | 11.3 | 0.00 | 0.00 | 0.00 | 75 | 1007.0 |
| 20260506211947 | 13 | 238 | 4.8 | 8.0 | 0.00 | 0.00 | 0.00 | 76 | 1007.0 |
| 20260506211447 | 13 | 205 | 6.4 | 16.1 | 0.00 | 0.00 | 0.00 | 77 | 1007.0 |
| 20260506210630 | 13 | 194 | 11.3 | 14.5 | 0.00 | 0.00 | 0.00 | 75 | 1007.0 |
| 20260506205947 | 13 | 221 | 9.7 | 14.5 | 0.00 | 0.00 | 0.00 | 75 | 1007.0 |
| 20260506205450 | 13 | 211 | 6.4 | 16.1 | 0.00 | 0.00 | 0.00 | 74 | 1007.0 |
| 20260506204945 | 13 | 199 | 8.0 | 16.1 | 0.00 | 0.00 | 0.00 | 74 | 1007.0 |
| 20260506204445 | 13 | 177 | 6.4 | 12.9 | 0.00 | 0.00 | 0.00 | 74 | 1007.0 |
| 20260506203947 | 13 | 243 | 9.7 | 12.9 | 0.00 | 0.00 | 0.00 | 74 | 1007.0 |
| 20260506203448 | 13 | 177 | 8.0 | 16.1 | 0.00 | 0.00 | 0.00 | 74 | 1008.0 |
| 20260506202947 | 13 | 174 | 6.4 | 14.5 | 0.00 | 0.00 | 0.00 | 74 | 1008.0 |
| 20260506202450 | 13 | 197 | 8.0 | 16.1 | 0.00 | 0.00 | 0.00 | 74 | 1008.0 |
| 20260506201947 | 13 | 169 | 12.9 | 20.9 | 0.00 | 0.00 | 0.00 | 74 | 1008.0 |
| 20260506201449 | 13 | 143 | 9.7 | 16.1 | 0.00 | 0.00 | 0.00 | 74 | 1008.0 |
| 20260506200946 | 13 | 178 | 8.0 | 17.7 | 0.00 | 0.00 | 0.00 | 75 | 1008.0 |
| 20260506200451 | 13 | 193 | 11.3 | 17.7 | 0.00 | 0.00 | 0.00 | 75 | 1008.0 |
| 20260506195947 | 13 | 167 | 9.7 | 22.5 | 0.00 | 0.00 | 0.00 | 74 | 1008.0 |
| 20260506195445 | 13 | 217 | 11.3 | 17.7 | 0.00 | 0.00 | 0.00 | 74 | 1008.0 |
| 20260506194949 | 13 | 248 | 8.0 | 17.7 | 0.00 | 0.00 | 0.00 | 74 | 1008.0 |
| 20260506194446 | 13 | 177 | 12.9 | 24.1 | 0.00 | 0.00 | 0.00 | 74 | 1008.0 |
| 20260506193949 | 13 | 205 | 12.9 | 24.1 | 0.00 | 0.00 | 0.00 | 76 | 1008.0 |
| 20260506193447 | 13 | 206 | 14.5 | 22.5 | 0.00 | 0.00 | 0.00 | 76 | 1007.0 |
| 20260506192945 | 13 | 181 | 11.3 | 22.5 | 0.00 | 0.00 | 0.00 | 76 | 1007.0 |
| 20260506192446 | 12 | 201 | 14.5 | 22.5 | 0.00 | 0.00 | 0.00 | 76 | 1007.0 |
| 20260506191944 | 12 | 276 | 12.9 | 19.3 | 0.00 | 0.00 | 0.00 | 76 | 1008.0 |
| 20260506191444 | 12 | 214 | 16.1 | 24.1 | 0.00 | 0.00 | 0.00 | 77 | 1008.0 |
| 20260506190946 | 12 | 191 | 11.3 | 20.9 | 0.00 | 0.00 | 0.00 | 76 | 1007.0 |
| 20260506190446 | 12 | 236 | 11.3 | 17.7 | 0.00 | 0.00 | 0.00 | 76 | 1007.0 |
| 20260506185944 | 12 | 210 | 9.7 | 19.3 | 0.00 | 0.00 | 0.00 | 77 | 1007.0 |
| 20260506185446 | 12 | 222 | 11.3 | 24.1 | 0.00 | 0.00 | 0.00 | 77 | 1007.0 |
| 20260506184946 | 12 | 137 | 9.7 | 20.9 | 0.00 | 0.00 | 0.00 | 77 | 1007.0 |
| 20260506184448 | 12 | 205 | 11.3 | 16.1 | 0.00 | 0.00 | 0.00 | 78 | 1007.0 |
| 20260506183945 | 12 | 248 | 14.5 | 27.4 | 0.00 | 0.00 | 0.00 | 78 | 1007.0 |
| 20260506183449 | 12 | 205 | 11.3 | 27.4 | 0.00 | 0.00 | 0.00 | 78 | 1007.0 |
| 20260506182947 | 12 | 193 | 8.0 | 22.5 | 0.00 | 0.00 | 0.00 | 78 | 1007.0 |
| 20260506182447 | 12 | 217 | 12.9 | 22.5 | 0.00 | 0.00 | 0.00 | 77 | 1007.0 |
| 20260506181949 | 12 | 189 | 6.4 | 16.1 | 0.00 | 0.00 | 0.00 | 78 | 1007.0 |
| 20260506181447 | 12 | 176 | 9.7 | 16.1 | 0.00 | 0.00 | 0.00 | 77 | 1007.0 |
| 20260506180944 | 12 | 134 | 6.4 | 12.9 | 0.00 | 0.00 | 0.00 | 79 | 1007.0 |
| 20260506180447 | 12 | 235 | 11.3 | 16.1 | 0.00 | 0.00 | 0.00 | 79 | 1007.0 |
| 20260506175946 | 12 | 192 | 8.0 | 24.1 | 0.00 | 0.00 | 0.00 | 80 | 1007.0 |
| 20260506175445 | 12 | 168 | 16.1 | 24.1 | 0.00 | 0.00 | 0.00 | 80 | 1007.0 |
| 20260506174948 | 12 | 223 | 8.0 | 14.5 | 0.00 | 0.00 | 0.00 | 81 | 1007.0 |
| 20260506174446 | 12 | 196 | 8.0 | 16.1 | 0.00 | 0.00 | 0.00 | 82 | 1007.0 |
| 20260506173947 | 12 | 164 | 9.7 | 17.7 | 0.00 | 0.00 | 0.00 | 82 | 1007.0 |
| 20260506173446 | 11 | 223 | 11.3 | 17.7 | 0.00 | 0.00 | 0.00 | 83 | 1007.0 |
| 20260506172946 | 11 | 214 | 9.7 | 14.5 | 0.00 | 0.00 | 0.00 | 83 | 1007.0 |
| 20260506172446 | 11 | 175 | 12.9 | 19.3 | 0.00 | 0.00 | 0.00 | 84 | 1007.0 |
| 20260506171949 | 11 | 221 | 11.3 | 17.7 | 0.00 | 0.00 | 0.00 | 84 | 1007.0 |
| 20260506171447 | 11 | 194 | 9.7 | 27.4 | 0.00 | 0.00 | 0.00 | 85 | 1007.0 |
| 20260506170949 | 11 | 200 | 16.1 | 27.4 | 0.00 | 0.00 | 0.00 | 85 | 1007.0 |
| 20260506170447 | 11 | 215 | 8.0 | 12.9 | 0.00 | 0.00 | 0.00 | 85 | 1006.0 |
| 20260506165948 | 11 | 159 | 8.0 | 14.5 | 0.00 | 0.00 | 0.00 | 87 | 1006.0 |
| 20260506165447 | 11 | 196 | 9.7 | 14.5 | 0.00 | 0.00 | 0.00 | 88 | 1006.0 |
| 20260506164945 | 11 | 143 | 6.4 | 11.3 | 0.00 | 0.00 | 0.00 | 88 | 1006.0 |
| 20260506164448 | 11 | 207 | 6.4 | 17.7 | 0.00 | 0.00 | 0.00 | 89 | 1006.0 |
| 20260506163947 | 11 | 209 | 11.3 | 19.3 | 0.00 | 0.00 | 0.00 | 89 | 1006.0 |
| 20260506163447 | 11 | 201 | 9.7 | 19.3 | 0.00 | 0.00 | 0.00 | 89 | 1006.0 |
| 20260506162947 | 11 | 211 | 8.0 | 14.5 | 0.00 | 0.00 | 0.00 | 90 | 1006.0 |
| 20260506162447 | 11 | 157 | 6.4 | 12.9 | 0.00 | 0.00 | 0.00 | 88 | 1006.0 |
| 20260506161948 | 11 | 198 | 8.0 | 12.9 | 0.00 | 0.00 | 0.00 | 89 | 1006.0 |
| 20260506161447 | 11 | 245 | 9.7 | 12.9 | 0.00 | 0.00 | 0.00 | 89 | 1006.0 |
| 20260506160947 | 11 | 209 | 9.7 | 12.9 | 0.00 | 0.00 | 0.00 | 89 | 1006.0 |
| 20260506160447 | 11 | 176 | 8.0 | 14.5 | 0.00 | 0.00 | 0.00 | 89 | 1006.0 |
| 20260506155949 | 11 | 192 | 11.3 | 14.5 | 0.00 | 0.00 | 0.00 | 89 | 1006.0 |
| 20260506155447 | 11 | 134 | 8.0 | 14.5 | 0.00 | 0.00 | 0.00 | 89 | 1006.0 |
| 20260506154947 | 11 | 129 | 4.8 | 14.5 | 0.00 | 0.00 | 0.00 | 88 | 1006.0 |
| 20260506154445 | 11 | 187 | 11.3 | 16.1 | 0.00 | 0.00 | 0.00 | 87 | 1006.0 |
| 20260506153948 | 11 | 166 | 9.7 | 16.1 | 0.00 | 0.00 | 0.00 | 87 | 1005.0 |
| 20260506153447 | 11 | 227 | 11.3 | 14.5 | 0.00 | 0.00 | 0.00 | 87 | 1006.0 |
| 20260506152947 | 12 | 199 | 6.4 | 12.9 | 0.00 | 0.00 | 0.00 | 86 | 1006.0 |
| 20260506152447 | 12 | 180 | 4.8 | 9.7 | 0.00 | 0.00 | 0.00 | 87 | 1006.0 |
| 20260506151946 | 11 | 235 | 4.8 | 14.5 | 0.00 | 0.00 | 0.00 | 87 | 1006.0 |
| 20260506151448 | 11 | 180 | 6.4 | 12.9 | 0.00 | 0.00 | 0.00 | 87 | 1006.0 |
| 20260506150945 | 11 | 197 | 9.7 | 16.1 | 0.00 | 0.00 | 0.00 | 88 | 1006.0 |
| 20260506150003 | 11 | 221 | 9.7 | 16.1 | 0.00 | 0.00 | 0.00 | 88 | 1006.0 |
| 20260506145446 | 11 | 124 | 9.7 | 12.9 | 0.00 | 0.00 | 0.00 | 88 | 1006.0 |
| 20260506144946 | 11 | 135 | 9.7 | 12.9 | 0.00 | 0.00 | 0.00 | 89 | 1006.0 |
| 20260506144449 | 11 | 197 | 6.4 | 12.9 | 0.00 | 0.00 | 0.00 | 89 | 1006.0 |
| 20260506143946 | 11 | 222 | 6.4 | 11.3 | 0.00 | 0.00 | 0.00 | 90 | 1006.0 |
| 20260506143445 | 11 | 193 | 4.8 | 9.7 | 0.00 | 0.00 | 0.00 | 90 | 1006.0 |
| 20260506142947 | 11 | 171 | 6.4 | 11.3 | 0.00 | 0.00 | 0.00 | 90 | 1006.0 |
| 20260506142451 | 11 | 195 | 4.8 | 9.7 | 0.00 | 0.00 | 0.00 | 91 | 1006.0 |
| 20260506141946 | 11 | 181 | 4.8 | 11.3 | 0.00 | 0.00 | 0.00 | 91 | 1006.0 |
| 20260506141448 | 11 | 190 | 6.4 | 9.7 | 0.00 | 0.00 | 0.00 | 91 | 1006.0 |
| 20260506140946 | 11 | 221 | 4.8 | 11.3 | 0.00 | 0.00 | 0.00 | 91 | 1006.0 |
| 20260506140451 | 11 | 128 | 6.4 | 11.3 | 0.00 | 0.00 | 0.00 | 91 | 1006.0 |
| 20260506135949 | 11 | 154 | 3.2 | 9.7 | 0.00 | 0.00 | 0.00 | 91 | 1006.0 |
| 20260506135447 | 11 | 205 | 6.4 | 9.7 | 0.00 | 0.00 | 0.00 | 91 | 1006.0 |
| 20260506134947 | 11 | 181 | 6.4 | 9.7 | 0.00 | 0.00 | 0.00 | 92 | 1006.0 |
| 20260506134449 | 11 | 152 | 3.2 | 6.4 | 0.00 | 0.00 | 0.00 | 92 | 1006.0 |
| 20260506133948 | 11 | 224 | 4.8 | 6.4 | 0.00 | 0.00 | 0.00 | 92 | 1006.0 |
| 20260506133447 | 11 | 173 | 3.2 | 9.7 | 0.00 | 0.00 | 0.00 | 92 | 1006.0 |
| 20260506132948 | 11 | 215 | 4.8 | 12.9 | 0.00 | 0.00 | 0.00 | 92 | 1006.0 |
| 20260506132446 | 11 | 114 | 8.0 | 11.3 | 0.00 | 0.00 | 0.00 | 92 | 1006.0 |
| 20260506131946 | 11 | 126 | 6.4 | 16.1 | 0.00 | 0.00 | 0.00 | 92 | 1006.0 |
| 20260506131446 | 11 | 172 | 9.7 | 16.1 | 0.00 | 0.00 | 0.00 | 91 | 1006.0 |
| 20260506130946 | 11 | 189 | 8.0 | 11.3 | 0.00 | 0.00 | 0.00 | 91 | 1006.0 |
| 20260506130449 | 11 | 213 | 6.4 | 11.3 | 0.00 | 0.00 | 0.00 | 91 | 1006.0 |
| 20260506125947 | 11 | 113 | 6.4 | 11.3 | 0.00 | 0.00 | 0.00 | 91 | 1006.0 |
| 20260506125449 | 11 | 181 | 4.8 | 12.9 | 0.00 | 0.00 | 0.00 | 91 | 1006.0 |
| 20260506124946 | 11 | 215 | 8.0 | 16.1 | 0.00 | 0.00 | 0.00 | 91 | 1006.0 |
| 20260506124446 | 11 | 127 | 6.4 | 16.1 | 0.00 | 0.00 | 0.00 | 91 | 1006.0 |
| 20260506123948 | 11 | 196 | 4.8 | 12.9 | 0.00 | 0.00 | 0.00 | 91 | 1006.0 |
| 20260506123447 | 11 | 182 | 4.8 | 12.9 | 0.00 | 0.00 | 0.00 | 91 | 1006.0 |
| 20260506122948 | 11 | 185 | 4.8 | 12.9 | 0.00 | 0.00 | 0.00 | 91 | 1006.0 |
| 20260506122447 | 11 | 160 | 4.8 | 16.1 | 0.00 | 0.00 | 0.00 | 91 | 1006.0 |
| 20260506121948 | 11 | 141 | 9.7 | 12.9 | 0.00 | 0.00 | 0.00 | 91 | 1005.0 |
| 20260506121447 | 11 | 164 | 4.8 | 14.5 | 0.00 | 0.00 | 0.00 | 91 | 1005.0 |
| 20260506120947 | 11 | 132 | 9.7 | 14.5 | 0.00 | 0.00 | 0.00 | 91 | 1005.0 |
| 20260506120446 | 11 | 165 | 9.7 | 16.1 | 0.00 | 0.00 | 0.00 | 91 | 1006.0 |
| 20260506115947 | 11 | 197 | 9.7 | 16.1 | 0.00 | 0.00 | 0.00 | 91 | 1006.0 |
| 20260506115447 | 11 | 222 | 8.0 | 14.5 | 0.00 | 0.00 | 0.00 | 91 | 1006.0 |
| 20260506114947 | 11 | 164 | 4.8 | 14.5 | 0.00 | 0.00 | 0.00 | 91 | 1006.0 |
| 20260506114448 | 11 | 173 | 6.4 | 14.5 | 0.00 | 0.00 | 0.00 | 91 | 1005.0 |
| 20260506113944 | 11 | 152 | 8.0 | 14.5 | 0.00 | 0.00 | 0.00 | 91 | 1005.0 |
| 20260506113447 | 11 | 250 | 11.3 | 12.9 | 0.00 | 0.00 | 0.00 | 91 | 1005.0 |
| 20260506112946 | 11 | 121 | 6.4 | 12.9 | 0.00 | 0.00 | 0.00 | 90 | 1005.0 |
| 20260506112446 | 11 | 199 | 8.0 | 14.5 | 0.00 | 0.00 | 0.00 | 90 | 1005.0 |
| 20260506111947 | 11 | 135 | 8.0 | 12.9 | 0.00 | 0.00 | 0.00 | 90 | 1005.0 |
| 20260506111444 | 11 | 250 | 8.0 | 14.5 | 0.00 | 0.00 | 0.00 | 90 | 1005.0 |
| 20260506110948 | 11 | 200 | 8.0 | 14.5 | 0.00 | 0.00 | 0.00 | 90 | 1005.0 |
| 20260506110448 | 11 | 266 | 6.4 | 14.5 | 0.00 | 0.00 | 0.00 | 91 | 1005.0 |
| 20260506105946 | 11 | 116 | 8.0 | 14.5 | 0.00 | 0.00 | 0.00 | 91 | 1005.0 |
| 20260506105447 | 11 | 195 | 8.0 | 11.3 | 0.00 | 0.00 | 0.00 | 91 | 1005.0 |
| 20260506104945 | 11 | 198 | 4.8 | 11.3 | 0.00 | 0.00 | 0.00 | 91 | 1005.0 |
| 20260506104450 | 11 | 157 | 3.2 | 6.4 | 0.00 | 0.00 | 0.00 | 91 | 1005.0 |
| 20260506103947 | 11 | 175 | 4.8 | 6.4 | 0.00 | 0.00 | 0.00 | 91 | 1005.0 |
| 20260506103447 | 11 | 131 | 4.8 | 8.0 | 0.00 | 0.00 | 0.00 | 91 | 1005.0 |
| 20260506102946 | 11 | 264 | 3.2 | 4.8 | 0.00 | 0.00 | 0.00 | 91 | 1004.0 |
| 20260506102444 | 11 | 178 | 3.2 | 6.4 | 0.00 | 0.00 | 0.00 | 91 | 1005.0 |
| 20260506101947 | 11 | 210 | 4.8 | 6.4 | 0.00 | 0.00 | 0.00 | 91 | 1004.0 |
| 20260506101447 | 11 | 154 | 1.6 | 11.3 | 0.00 | 0.00 | 0.00 | 92 | 1004.0 |
| 20260506100947 | 11 | 119 | 4.8 | 11.3 | 0.00 | 0.00 | 0.00 | 92 | 1004.0 |
| 20260506100449 | 11 | 123 | 3.2 | 9.7 | 0.00 | 0.00 | 0.00 | 92 | 1004.0 |
| 20260506095946 | 11 | 210 | 4.8 | 9.7 | 0.00 | 0.00 | 0.00 | 92 | 1004.0 |
| 20260506095446 | 11 | 237 | 3.2 | 9.7 | 0.00 | 0.00 | 0.00 | 92 | 1004.0 |
| 20260506094945 | 11 | 212 | 1.6 | 9.7 | 0.00 | 0.00 | 0.00 | 92 | 1004.0 |
| 20260506094445 | 11 | 151 | 3.2 | 11.3 | 0.00 | 0.00 | 0.00 | 92 | 1004.0 |
| 20260506093944 | 11 | 220 | 8.0 | 16.1 | 0.00 | 0.00 | 0.00 | 92 | 1004.0 |
| 20260506093447 | 11 | 154 | 6.4 | 12.9 | 0.00 | 0.00 | 0.00 | 92 | 1004.0 |
| 20260506092947 | 11 | 227 | 6.4 | 12.9 | 0.00 | 0.00 | 0.00 | 93 | 1004.0 |
| 20260506092445 | 11 | 228 | 8.0 | 12.9 | 0.00 | 0.00 | 0.00 | 93 | 1004.0 |
| 20260506091947 | 11 | 119 | 6.4 | 11.3 | 0.00 | 0.00 | 0.00 | 93 | 1004.0 |
| 20260506091447 | 10 | 150 | 6.4 | 11.3 | 0.00 | 0.00 | 0.00 | 93 | 1004.0 |
| 20260506090945 | 10 | 105 | 4.8 | 11.3 | 0.00 | 0.00 | 0.00 | 93 | 1004.0 |
| 20260506090444 | 10 | 196 | 4.8 | 8.0 | 0.00 | 0.00 | 0.00 | 93 | 1004.0 |
| 20260506085947 | 10 | 182 | 4.8 | 12.9 | 0.00 | 0.00 | 0.00 | 93 | 1004.0 |
| 20260506085445 | 10 | 198 | 8.0 | 12.9 | 0.00 | 0.00 | 0.00 | 93 | 1004.0 |
| 20260506084944 | 10 | 219 | 3.2 | 6.4 | 0.00 | 0.00 | 0.00 | 93 | 1004.0 |
| 20260506084447 | 10 | 161 | 4.8 | 9.7 | 0.00 | 0.00 | 0.00 | 93 | 1004.0 |
| 20260506083946 | 10 | 183 | 4.8 | 8.0 | 0.00 | 0.00 | 0.00 | 92 | 1003.0 |
| 20260506083444 | 10 | 174 | 4.8 | 6.4 | 0.00 | 0.00 | 0.00 | 92 | 1003.0 |
| 20260506082946 | 10 | 160 | 4.8 | 9.7 | 0.00 | 0.00 | 0.00 | 92 | 1003.0 |
| 20260506082445 | 10 | 223 | 4.8 | 11.3 | 0.00 | 0.00 | 0.00 | 92 | 1002.0 |
| 20260506081947 | 11 | 206 | 6.4 | 9.7 | 0.00 | 0.00 | 0.00 | 92 | 1002.0 |
| 20260506081447 | 11 | 186 | 3.2 | 8.0 | 0.00 | 0.00 | 0.00 | 91 | 1001.0 |
| 20260506080949 | 11 | 179 | 4.8 | 9.7 | 0.00 | 0.00 | 0.00 | 91 | 1000.0 |
| 20260506080445 | 11 | 181 | 4.8 | 9.7 | 0.00 | 0.00 | 0.00 | 91 | 999.0 |
| 20260506073446 | 11 | 181 | 4.8 | 6.4 | 0.00 | 0.00 | 0.00 | 90 | 1008.0 |
| 20260506072949 | 11 | 168 | 3.2 | 4.8 | 0.00 | 0.00 | 0.00 | 89 | 1008.0 |
| 20260506072446 | 11 | 177 | 3.2 | 4.8 | 0.00 | 0.00 | 0.00 | 89 | 1008.0 |
| 20260506071947 | 11 | 200 | 1.6 | 4.8 | 0.00 | 0.00 | 0.00 | 89 | 1008.0 |
| 20260506071446 | 11 | 261 | 0.0 | 4.8 | 0.00 | 0.00 | 0.00 | 88 | 1008.0 |
| 20260506070946 | 11 | 261 | 3.2 | 4.8 | 0.00 | 0.00 | 0.00 | 88 | 1008.0 |
| 20260506070448 | 12 | 211 | 1.6 | 6.4 | 0.00 | 0.00 | 0.00 | 87 | 1008.0 |
| 20260506062446 | 12 | 326 | 1.6 | 12.9 | 0.00 | 0.00 | 0.00 | 85 | 1009.0 |
| 20260506061944 | 12 | 6 | 9.7 | 12.9 | 0.00 | 0.00 | 0.00 | 85 | 1009.0 |
| 20260506061445 | 12 | 288 | 4.8 | 16.1 | 0.00 | 0.00 | 0.00 | 85 | 1009.0 |
| 20260506060952 | 12 | 212 | 6.4 | 16.1 | 0.00 | 0.00 | 0.00 | 85 | 1009.0 |
| 20260506060447 | 12 | 236 | 8.0 | 17.7 | 0.00 | 0.00 | 0.00 | 85 | 1010.0 |
| 20260506050946 | 13 | 212 | 12.9 | 24.1 | 0.00 | 0.00 | 0.00 | 80 | 1011.0 |
| 20260506050447 | 13 | 229 | 14.5 | 24.1 | 0.00 | 0.00 | 0.00 | 80 | 1012.0 |